sensor_id;sensor_type;location;lat;lon;timestamp;temperature;humidity
46416;DHT22;32620;51.704;7.822;2022-09-30T00:02:09;4.90;99.90
46416;DHT22;32620;51.704;7.822;2022-09-30T00:04:36;4.80;99.90
46416;DHT22;32620;51.704;7.822;2022-09-30T00:07:02;4.80;99.90
46416;DHT22;32620;51.704;7.822;2022-09-30T00:09:27;4.80;99.90
46416;DHT22;32620;51.704;7.822;2022-09-30T00:11:53;4.80;99.90
46416;DHT22;32620;51.704;7.822;2022-09-30T00:14:20;4.80;99.90
46416;DHT22;32620;51.704;7.822;2022-09-30T00:16:46;4.70;99.90
46416;DHT22;32620;51.704;7.822;2022-09-30T00:19:12;4.70;99.90
46416;DHT22;32620;51.704;7.822;2022-09-30T00:21:37;4.70;99.90
46416;DHT22;32620;51.704;7.822;2022-09-30T00:24:03;4.70;99.90
46416;DHT22;32620;51.704;7.822;2022-09-30T00:26:29;4.70;99.90
46416;DHT22;32620;51.704;7.822;2022-09-30T00:28:56;4.60;99.90
46416;DHT22;32620;51.704;7.822;2022-09-30T00:31:23;4.60;99.90
46416;DHT22;32620;51.704;7.822;2022-09-30T00:33:49;4.60;99.90
46416;DHT22;32620;51.704;7.822;2022-09-30T00:39:17;4.60;99.90
46416;DHT22;32620;51.704;7.822;2022-09-30T00:41:44;4.50;99.90
46416;DHT22;32620;51.704;7.822;2022-09-30T00:44:42;4.50;99.90
46416;DHT22;32620;51.704;7.822;2022-09-30T00:46:56;4.50;99.90
46416;DHT22;32620;51.704;7.822;2022-09-30T00:49:22;4.50;99.90
46416;DHT22;32620;51.704;7.822;2022-09-30T00:51:52;4.50;99.90
46416;DHT22;32620;51.704;7.822;2022-09-30T00:54:19;4.50;99.90
46416;DHT22;32620;51.704;7.822;2022-09-30T00:56:47;4.50;99.90
46416;DHT22;32620;51.704;7.822;2022-09-30T00:59:13;4.50;99.90
46416;DHT22;32620;51.704;7.822;2022-09-30T01:01:40;4.50;99.90
46416;DHT22;32620;51.704;7.822;2022-09-30T01:04:10;4.50;99.90
46416;DHT22;32620;51.704;7.822;2022-09-30T01:06:37;4.50;99.90
46416;DHT22;32620;51.704;7.822;2022-09-30T01:09:02;4.40;99.90
46416;DHT22;32620;51.704;7.822;2022-09-30T01:11:28;4.40;99.90
46416;DHT22;32620;51.704;7.822;2022-09-30T01:13:55;4.40;99.90
46416;DHT22;32620;51.704;7.822;2022-09-30T01:24:11;4.30;99.90
46416;DHT22;32620;51.704;7.822;2022-09-30T01:29:36;4.30;99.90
46416;DHT22;32620;51.704;7.822;2022-09-30T01:32:08;4.20;99.90
46416;DHT22;32620;51.704;7.822;2022-09-30T01:37:26;4.20;99.90
46416;DHT22;32620;51.704;7.822;2022-09-30T01:40:25;4.20;99.90
46416;DHT22;32620;51.704;7.822;2022-09-30T01:42:41;4.20;99.90
46416;DHT22;32620;51.704;7.822;2022-09-30T01:45:09;4.20;99.90
46416;DHT22;32620;51.704;7.822;2022-09-30T01:47:47;4.10;99.90
46416;DHT22;32620;51.704;7.822;2022-09-30T01:50:22;4.10;99.90
46416;DHT22;32620;51.704;7.822;2022-09-30T01:53:03;4.20;99.90
46416;DHT22;32620;51.704;7.822;2022-09-30T01:55:35;4.20;99.90
46416;DHT22;32620;51.704;7.822;2022-09-30T01:58:05;4.20;99.90
46416;DHT22;32620;51.704;7.822;2022-09-30T02:00:32;4.10;99.90
46416;DHT22;32620;51.704;7.822;2022-09-30T02:03:01;4.10;99.90
46416;DHT22;32620;51.704;7.822;2022-09-30T02:05:32;4.10;99.90
46416;DHT22;32620;51.704;7.822;2022-09-30T02:08:03;4.00;99.90
46416;DHT22;32620;51.704;7.822;2022-09-30T02:10:32;4.10;99.90
46416;DHT22;32620;51.704;7.822;2022-09-30T02:13:01;4.00;99.90
46416;DHT22;32620;51.704;7.822;2022-09-30T02:15:30;4.00;99.90
46416;DHT22;32620;51.704;7.822;2022-09-30T02:18:00;4.00;99.90
46416;DHT22;32620;51.704;7.822;2022-09-30T02:20:29;4.00;99.90
46416;DHT22;32620;51.704;7.822;2022-09-30T02:22:58;4.00;99.90
46416;DHT22;32620;51.704;7.822;2022-09-30T02:25:28;4.00;99.90
46416;DHT22;32620;51.704;7.822;2022-09-30T02:27:56;4.00;99.90
46416;DHT22;32620;51.704;7.822;2022-09-30T02:30:23;4.00;99.90
46416;DHT22;32620;51.704;7.822;2022-09-30T02:32:50;3.90;99.90
46416;DHT22;32620;51.704;7.822;2022-09-30T02:35:33;3.90;99.90
46416;DHT22;32620;51.704;7.822;2022-09-30T02:38:02;3.80;99.90
46416;DHT22;32620;51.704;7.822;2022-09-30T02:40:31;3.80;99.90
46416;DHT22;32620;51.704;7.822;2022-09-30T02:43:00;3.80;99.90
46416;DHT22;32620;51.704;7.822;2022-09-30T02:45:26;3.70;99.90
46416;DHT22;32620;51.704;7.822;2022-09-30T02:50:39;3.80;99.90
46416;DHT22;32620;51.704;7.822;2022-09-30T02:53:12;3.80;99.90
46416;DHT22;32620;51.704;7.822;2022-09-30T02:55:46;3.80;99.90
46416;DHT22;32620;51.704;7.822;2022-09-30T02:58:16;3.70;99.90
46416;DHT22;32620;51.704;7.822;2022-09-30T03:00:43;3.70;99.90
46416;DHT22;32620;51.704;7.822;2022-09-30T03:03:12;3.70;99.90
46416;DHT22;32620;51.704;7.822;2022-09-30T03:05:40;3.60;99.90
46416;DHT22;32620;51.704;7.822;2022-09-30T03:08:05;3.60;99.90
46416;DHT22;32620;51.704;7.822;2022-09-30T03:10:31;3.60;99.90
46416;DHT22;32620;51.704;7.822;2022-09-30T03:18:32;3.50;99.90
46416;DHT22;32620;51.704;7.822;2022-09-30T03:21:36;3.50;99.90
46416;DHT22;32620;51.704;7.822;2022-09-30T03:24:22;3.50;99.90
46416;DHT22;32620;51.704;7.822;2022-09-30T03:26:35;3.50;99.90
46416;DHT22;32620;51.704;7.822;2022-09-30T03:29:06;3.50;99.90
46416;DHT22;32620;51.704;7.822;2022-09-30T03:31:39;3.40;99.90
46416;DHT22;32620;51.704;7.822;2022-09-30T03:34:11;3.40;99.90
46416;DHT22;32620;51.704;7.822;2022-09-30T03:36:41;3.40;99.90
46416;DHT22;32620;51.704;7.822;2022-09-30T03:39:43;3.40;99.90
46416;DHT22;32620;51.704;7.822;2022-09-30T03:41:57;3.30;99.90
46416;DHT22;32620;51.704;7.822;2022-09-30T03:44:28;3.30;99.90
46416;DHT22;32620;51.704;7.822;2022-09-30T03:47:02;3.30;99.90
46416;DHT22;32620;51.704;7.822;2022-09-30T03:49:30;3.30;99.90
46416;DHT22;32620;51.704;7.822;2022-09-30T03:51:57;3.30;99.90
46416;DHT22;32620;51.704;7.822;2022-09-30T03:54:24;3.30;99.90
46416;DHT22;32620;51.704;7.822;2022-09-30T03:56:50;3.30;99.90
46416;DHT22;32620;51.704;7.822;2022-09-30T03:59:21;3.30;99.90
46416;DHT22;32620;51.704;7.822;2022-09-30T04:01:47;3.30;99.90
46416;DHT22;32620;51.704;7.822;2022-09-30T04:04:12;3.30;99.90
46416;DHT22;32620;51.704;7.822;2022-09-30T04:06:38;3.30;99.90
46416;DHT22;32620;51.704;7.822;2022-09-30T04:09:03;3.20;99.90
46416;DHT22;32620;51.704;7.822;2022-09-30T04:11:29;3.30;99.90
46416;DHT22;32620;51.704;7.822;2022-09-30T04:13:55;3.20;99.90
46416;DHT22;32620;51.704;7.822;2022-09-30T04:16:20;3.30;99.90
46416;DHT22;32620;51.704;7.822;2022-09-30T04:18:46;3.20;99.90
46416;DHT22;32620;51.704;7.822;2022-09-30T04:21:11;3.20;99.90
46416;DHT22;32620;51.704;7.822;2022-09-30T04:23:38;3.20;99.90
46416;DHT22;32620;51.704;7.822;2022-09-30T04:26:04;3.10;99.90
46416;DHT22;32620;51.704;7.822;2022-09-30T04:28:30;3.10;99.90
46416;DHT22;32620;51.704;7.822;2022-09-30T04:30:58;3.10;99.90
46416;DHT22;32620;51.704;7.822;2022-09-30T04:33:23;3.10;99.90
46416;DHT22;32620;51.704;7.822;2022-09-30T04:35:52;3.10;99.90
46416;DHT22;32620;51.704;7.822;2022-09-30T04:38:17;3.00;99.90
46416;DHT22;32620;51.704;7.822;2022-09-30T04:40:43;3.00;99.90
46416;DHT22;32620;51.704;7.822;2022-09-30T04:43:08;3.00;99.90
46416;DHT22;32620;51.704;7.822;2022-09-30T04:45:34;3.00;99.90
46416;DHT22;32620;51.704;7.822;2022-09-30T04:48:00;3.00;99.90
46416;DHT22;32620;51.704;7.822;2022-09-30T04:50:25;2.90;99.90
46416;DHT22;32620;51.704;7.822;2022-09-30T04:52:51;2.90;99.90
46416;DHT22;32620;51.704;7.822;2022-09-30T04:55:16;2.90;99.90
46416;DHT22;32620;51.704;7.822;2022-09-30T04:57:42;2.90;99.90
46416;DHT22;32620;51.704;7.822;2022-09-30T05:00:08;2.90;99.90
46416;DHT22;32620;51.704;7.822;2022-09-30T05:02:34;2.90;99.90
46416;DHT22;32620;51.704;7.822;2022-09-30T05:04:59;2.80;99.90
46416;DHT22;32620;51.704;7.822;2022-09-30T05:07:29;2.80;99.90
46416;DHT22;32620;51.704;7.822;2022-09-30T05:09:54;2.80;99.90
46416;DHT22;32620;51.704;7.822;2022-09-30T05:12:19;2.80;99.90
46416;DHT22;32620;51.704;7.822;2022-09-30T05:14:45;2.80;99.90
46416;DHT22;32620;51.704;7.822;2022-09-30T05:17:10;2.80;99.90
46416;DHT22;32620;51.704;7.822;2022-09-30T05:19:36;2.80;99.90
46416;DHT22;32620;51.704;7.822;2022-09-30T05:22:01;2.70;99.90
46416;DHT22;32620;51.704;7.822;2022-09-30T05:24:27;2.80;99.90
46416;DHT22;32620;51.704;7.822;2022-09-30T05:26:55;2.80;99.90
46416;DHT22;32620;51.704;7.822;2022-09-30T05:29:20;2.80;99.90
46416;DHT22;32620;51.704;7.822;2022-09-30T05:31:46;2.80;99.90
46416;DHT22;32620;51.704;7.822;2022-09-30T05:34:11;2.80;99.90
46416;DHT22;32620;51.704;7.822;2022-09-30T05:36:37;2.80;99.90
46416;DHT22;32620;51.704;7.822;2022-09-30T05:39:02;2.90;99.90
46416;DHT22;32620;51.704;7.822;2022-09-30T05:41:28;2.80;99.90
46416;DHT22;32620;51.704;7.822;2022-09-30T05:43:53;2.90;99.90
46416;DHT22;32620;51.704;7.822;2022-09-30T05:46:19;3.00;99.90
46416;DHT22;32620;51.704;7.822;2022-09-30T05:48:45;3.00;99.90
46416;DHT22;32620;51.704;7.822;2022-09-30T05:51:11;3.10;99.90
46416;DHT22;32620;51.704;7.822;2022-09-30T05:53:37;3.10;99.90
46416;DHT22;32620;51.704;7.822;2022-09-30T05:56:03;3.20;99.90
46416;DHT22;32620;51.704;7.822;2022-09-30T05:58:29;3.20;99.90
46416;DHT22;32620;51.704;7.822;2022-09-30T06:00:55;3.40;99.90
46416;DHT22;32620;51.704;7.822;2022-09-30T06:03:20;3.50;99.90
46416;DHT22;32620;51.704;7.822;2022-09-30T06:05:46;3.50;99.90
46416;DHT22;32620;51.704;7.822;2022-09-30T06:08:12;3.70;99.90
46416;DHT22;32620;51.704;7.822;2022-09-30T06:10:39;3.90;99.90
46416;DHT22;32620;51.704;7.822;2022-09-30T06:13:04;4.00;99.90
46416;DHT22;32620;51.704;7.822;2022-09-30T06:15:30;4.10;99.90
46416;DHT22;32620;51.704;7.822;2022-09-30T06:17:56;4.20;99.90
46416;DHT22;32620;51.704;7.822;2022-09-30T06:20:22;4.40;99.90
46416;DHT22;32620;51.704;7.822;2022-09-30T06:22:48;4.90;99.90
46416;DHT22;32620;51.704;7.822;2022-09-30T06:25:14;6.10;99.90
46416;DHT22;32620;51.704;7.822;2022-09-30T06:27:42;7.50;99.90
46416;DHT22;32620;51.704;7.822;2022-09-30T06:30:08;8.50;99.90
46416;DHT22;32620;51.704;7.822;2022-09-30T06:32:34;9.30;99.90
46416;DHT22;32620;51.704;7.822;2022-09-30T06:34:59;9.80;99.90
46416;DHT22;32620;51.704;7.822;2022-09-30T06:37:25;10.10;99.90
46416;DHT22;32620;51.704;7.822;2022-09-30T06:39:50;11.10;99.90
46416;DHT22;32620;51.704;7.822;2022-09-30T06:42:16;11.90;99.90
46416;DHT22;32620;51.704;7.822;2022-09-30T06:44:42;12.70;99.90
46416;DHT22;32620;51.704;7.822;2022-09-30T06:47:07;13.10;99.90
46416;DHT22;32620;51.704;7.822;2022-09-30T06:49:33;13.40;99.90
46416;DHT22;32620;51.704;7.822;2022-09-30T06:51:59;13.40;99.90
46416;DHT22;32620;51.704;7.822;2022-09-30T06:54:25;13.60;99.90
46416;DHT22;32620;51.704;7.822;2022-09-30T06:56:53;14.10;99.90
46416;DHT22;32620;51.704;7.822;2022-09-30T06:59:19;13.80;99.90
46416;DHT22;32620;51.704;7.822;2022-09-30T07:01:45;13.90;99.90
46416;DHT22;32620;51.704;7.822;2022-09-30T07:04:10;13.90;99.90
46416;DHT22;32620;51.704;7.822;2022-09-30T07:06:36;14.20;99.90
46416;DHT22;32620;51.704;7.822;2022-09-30T07:09:03;14.20;99.90
46416;DHT22;32620;51.704;7.822;2022-09-30T07:11:28;14.40;99.90
46416;DHT22;32620;51.704;7.822;2022-09-30T07:13:54;14.70;99.90
46416;DHT22;32620;51.704;7.822;2022-09-30T07:16:19;14.30;99.90
46416;DHT22;32620;51.704;7.822;2022-09-30T07:18:45;14.00;99.90
46416;DHT22;32620;51.704;7.822;2022-09-30T07:21:12;14.40;99.90
46416;DHT22;32620;51.704;7.822;2022-09-30T07:23:40;14.40;99.90
46416;DHT22;32620;51.704;7.822;2022-09-30T07:26:12;15.10;99.90
46416;DHT22;32620;51.704;7.822;2022-09-30T07:31:06;16.30;99.90
46416;DHT22;32620;51.704;7.822;2022-09-30T07:33:32;17.10;99.90
46416;DHT22;32620;51.704;7.822;2022-09-30T07:36:00;17.20;99.90
46416;DHT22;32620;51.704;7.822;2022-09-30T07:38:26;16.00;99.90
46416;DHT22;32620;51.704;7.822;2022-09-30T07:40:56;15.50;99.90
46416;DHT22;32620;51.704;7.822;2022-09-30T07:43:24;15.10;99.90
46416;DHT22;32620;51.704;7.822;2022-09-30T07:45:49;14.80;99.90
46416;DHT22;32620;51.704;7.822;2022-09-30T07:48:15;14.60;99.90
46416;DHT22;32620;51.704;7.822;2022-09-30T07:51:01;14.80;99.90
46416;DHT22;32620;51.704;7.822;2022-09-30T07:53:26;15.10;99.90
46416;DHT22;32620;51.704;7.822;2022-09-30T07:55:52;15.70;99.90
46416;DHT22;32620;51.704;7.822;2022-09-30T07:58:17;15.80;99.90
46416;DHT22;32620;51.704;7.822;2022-09-30T08:00:45;16.10;99.90
46416;DHT22;32620;51.704;7.822;2022-09-30T08:03:11;16.30;99.90
46416;DHT22;32620;51.704;7.822;2022-09-30T08:05:38;16.20;99.90
46416;DHT22;32620;51.704;7.822;2022-09-30T08:08:03;15.80;99.90
46416;DHT22;32620;51.704;7.822;2022-09-30T08:10:33;16.30;99.90
46416;DHT22;32620;51.704;7.822;2022-09-30T08:12:58;16.30;99.90
46416;DHT22;32620;51.704;7.822;2022-09-30T08:15:24;16.20;99.90
46416;DHT22;32620;51.704;7.822;2022-09-30T08:17:49;16.30;99.90
46416;DHT22;32620;51.704;7.822;2022-09-30T08:20:15;16.50;99.90
46416;DHT22;32620;51.704;7.822;2022-09-30T08:22:40;16.60;99.90
46416;DHT22;32620;51.704;7.822;2022-09-30T08:25:06;16.40;99.90
46416;DHT22;32620;51.704;7.822;2022-09-30T08:27:31;16.30;99.90
46416;DHT22;32620;51.704;7.822;2022-09-30T08:29:57;16.50;99.90
46416;DHT22;32620;51.704;7.822;2022-09-30T08:32:22;16.80;99.90
46416;DHT22;32620;51.704;7.822;2022-09-30T08:34:47;16.70;99.90
46416;DHT22;32620;51.704;7.822;2022-09-30T08:37:13;16.40;99.90
46416;DHT22;32620;51.704;7.822;2022-09-30T08:39:38;16.00;99.90
46416;DHT22;32620;51.704;7.822;2022-09-30T08:42:07;16.10;99.90
46416;DHT22;32620;51.704;7.822;2022-09-30T08:44:41;16.10;99.90
46416;DHT22;32620;51.704;7.822;2022-09-30T08:49:59;16.60;99.90
46416;DHT22;32620;51.704;7.822;2022-09-30T08:52:27;16.70;99.90
46416;DHT22;32620;51.704;7.822;2022-09-30T08:54:53;17.50;99.90
46416;DHT22;32620;51.704;7.822;2022-09-30T08:57:20;17.50;99.90
46416;DHT22;32620;51.704;7.822;2022-09-30T08:59:47;17.60;99.90
46416;DHT22;32620;51.704;7.822;2022-09-30T09:02:22;17.60;99.90
46416;DHT22;32620;51.704;7.822;2022-09-30T09:04:49;18.80;99.90
46416;DHT22;32620;51.704;7.822;2022-09-30T09:07:19;18.20;99.90
46416;DHT22;32620;51.704;7.822;2022-09-30T09:09:53;18.00;99.90
46416;DHT22;32620;51.704;7.822;2022-09-30T09:12:25;17.80;99.90
46416;DHT22;32620;51.704;7.822;2022-09-30T09:15:00;17.50;99.90
46416;DHT22;32620;51.704;7.822;2022-09-30T09:17:30;17.90;99.90
46416;DHT22;32620;51.704;7.822;2022-09-30T09:22:42;18.20;99.90
46416;DHT22;32620;51.704;7.822;2022-09-30T09:25:16;18.30;99.90
46416;DHT22;32620;51.704;7.822;2022-09-30T09:27:48;18.60;99.90
46416;DHT22;32620;51.704;7.822;2022-09-30T09:30:18;18.80;99.90
46416;DHT22;32620;51.704;7.822;2022-09-30T09:32:44;18.50;99.90
46416;DHT22;32620;51.704;7.822;2022-09-30T09:35:14;18.70;99.90
46416;DHT22;32620;51.704;7.822;2022-09-30T09:40:51;18.80;99.90
46416;DHT22;32620;51.704;7.822;2022-09-30T09:43:26;18.30;99.90
46416;DHT22;32620;51.704;7.822;2022-09-30T09:45:57;18.60;99.90
46416;DHT22;32620;51.704;7.822;2022-09-30T09:48:24;18.80;99.90
46416;DHT22;32620;51.704;7.822;2022-09-30T09:50:56;18.60;99.90
46416;DHT22;32620;51.704;7.822;2022-09-30T09:53:32;18.70;99.90
46416;DHT22;32620;51.704;7.822;2022-09-30T09:55:58;18.90;99.90
46416;DHT22;32620;51.704;7.822;2022-09-30T09:58:24;18.90;99.90
46416;DHT22;32620;51.704;7.822;2022-09-30T10:00:50;18.70;99.90
46416;DHT22;32620;51.704;7.822;2022-09-30T10:03:19;18.20;99.90
46416;DHT22;32620;51.704;7.822;2022-09-30T10:08:33;18.60;99.90
46416;DHT22;32620;51.704;7.822;2022-09-30T10:11:00;18.90;99.90
46416;DHT22;32620;51.704;7.822;2022-09-30T10:13:28;18.60;99.90
46416;DHT22;32620;51.704;7.822;2022-09-30T10:15:55;18.60;99.90
46416;DHT22;32620;51.704;7.822;2022-09-30T10:18:36;18.60;99.90
46416;DHT22;32620;51.704;7.822;2022-09-30T10:21:06;18.70;99.90
46416;DHT22;32620;51.704;7.822;2022-09-30T10:23:37;18.70;99.90
46416;DHT22;32620;51.704;7.822;2022-09-30T10:26:05;19.00;99.90
46416;DHT22;32620;51.704;7.822;2022-09-30T10:28:44;18.80;99.90
46416;DHT22;32620;51.704;7.822;2022-09-30T10:31:11;18.50;99.90
46416;DHT22;32620;51.704;7.822;2022-09-30T10:33:40;18.60;99.90
46416;DHT22;32620;51.704;7.822;2022-09-30T10:36:09;18.20;99.90
46416;DHT22;32620;51.704;7.822;2022-09-30T10:38:36;18.80;99.90
46416;DHT22;32620;51.704;7.822;2022-09-30T10:41:03;18.70;99.90
46416;DHT22;32620;51.704;7.822;2022-09-30T10:43:30;18.60;99.90
46416;DHT22;32620;51.704;7.822;2022-09-30T10:45:57;18.80;99.90
46416;DHT22;32620;51.704;7.822;2022-09-30T10:48:27;18.40;99.90
46416;DHT22;32620;51.704;7.822;2022-09-30T10:50:54;17.80;99.90
46416;DHT22;32620;51.704;7.822;2022-09-30T10:53:22;17.50;99.90
46416;DHT22;32620;51.704;7.822;2022-09-30T10:55:49;18.00;99.90
46416;DHT22;32620;51.704;7.822;2022-09-30T10:58:22;18.10;99.90
46416;DHT22;32620;51.704;7.822;2022-09-30T11:00:49;18.30;99.90
46416;DHT22;32620;51.704;7.822;2022-09-30T11:03:16;18.30;99.90
46416;DHT22;32620;51.704;7.822;2022-09-30T11:05:43;18.80;99.90
46416;DHT22;32620;51.704;7.822;2022-09-30T11:08:12;19.00;99.90
46416;DHT22;32620;51.704;7.822;2022-09-30T11:10:44;18.60;99.90
46416;DHT22;32620;51.704;7.822;2022-09-30T11:13:27;18.20;99.90
46416;DHT22;32620;51.704;7.822;2022-09-30T11:16:03;18.20;99.90
46416;DHT22;32620;51.704;7.822;2022-09-30T11:18:34;18.30;99.90
46416;DHT22;32620;51.704;7.822;2022-09-30T11:21:05;18.70;99.90
46416;DHT22;32620;51.704;7.822;2022-09-30T11:23:34;19.20;99.90
46416;DHT22;32620;51.704;7.822;2022-09-30T11:28:50;18.60;99.90
46416;DHT22;32620;51.704;7.822;2022-09-30T11:31:23;18.10;99.90
46416;DHT22;32620;51.704;7.822;2022-09-30T11:33:55;18.00;99.90
46416;DHT22;32620;51.704;7.822;2022-09-30T11:39:22;17.10;99.90
46416;DHT22;32620;51.704;7.822;2022-09-30T11:42:01;17.10;99.90
46416;DHT22;32620;51.704;7.822;2022-09-30T11:44:31;17.50;99.90
46416;DHT22;32620;51.704;7.822;2022-09-30T11:50:18;17.10;99.90
46416;DHT22;32620;51.704;7.822;2022-09-30T11:52:45;17.20;99.90
46416;DHT22;32620;51.704;7.822;2022-09-30T11:55:20;17.00;99.90
46416;DHT22;32620;51.704;7.822;2022-09-30T11:58:19;17.10;99.90
46416;DHT22;32620;51.704;7.822;2022-09-30T12:00:32;17.30;99.90
46416;DHT22;32620;51.704;7.822;2022-09-30T12:03:03;17.40;99.90
46416;DHT22;32620;51.704;7.822;2022-09-30T12:05:32;16.90;99.90
46416;DHT22;32620;51.704;7.822;2022-09-30T12:08:05;16.90;99.90
46416;DHT22;32620;51.704;7.822;2022-09-30T12:10:38;16.60;99.90
46416;DHT22;32620;51.704;7.822;2022-09-30T12:13:09;17.00;99.90
46416;DHT22;32620;51.704;7.822;2022-09-30T12:15:36;17.00;99.90
46416;DHT22;32620;51.704;7.822;2022-09-30T12:18:04;17.10;99.90
46416;DHT22;32620;51.704;7.822;2022-09-30T12:20:31;17.10;99.90
46416;DHT22;32620;51.704;7.822;2022-09-30T12:23:00;16.70;99.90
46416;DHT22;32620;51.704;7.822;2022-09-30T12:25:31;16.90;99.90
46416;DHT22;32620;51.704;7.822;2022-09-30T12:28:02;17.20;99.90
46416;DHT22;32620;51.704;7.822;2022-09-30T12:30:49;17.60;99.90
46416;DHT22;32620;51.704;7.822;2022-09-30T12:33:21;17.60;99.90
46416;DHT22;32620;51.704;7.822;2022-09-30T12:38:50;18.00;99.90
46416;DHT22;32620;51.704;7.822;2022-09-30T12:41:51;18.20;99.90
46416;DHT22;32620;51.704;7.822;2022-09-30T12:44:10;17.80;99.90
46416;DHT22;32620;51.704;7.822;2022-09-30T12:46:47;17.40;99.90
46416;DHT22;32620;51.704;7.822;2022-09-30T12:49:18;17.40;99.90
46416;DHT22;32620;51.704;7.822;2022-09-30T12:51:48;17.50;99.90
46416;DHT22;32620;51.704;7.822;2022-09-30T12:54:16;17.60;99.90
46416;DHT22;32620;51.704;7.822;2022-09-30T12:56:43;18.00;99.90
46416;DHT22;32620;51.704;7.822;2022-09-30T12:59:09;17.90;99.90
46416;DHT22;32620;51.704;7.822;2022-09-30T13:01:36;17.80;99.90
46416;DHT22;32620;51.704;7.822;2022-09-30T13:14:33;17.60;99.90
46416;DHT22;32620;51.704;7.822;2022-09-30T13:17:00;17.60;99.90
46416;DHT22;32620;51.704;7.822;2022-09-30T13:19:42;17.50;99.90
46416;DHT22;32620;51.704;7.822;2022-09-30T13:27:36;17.50;99.90
46416;DHT22;32620;51.704;7.822;2022-09-30T13:30:32;17.40;99.90
46416;DHT22;32620;51.704;7.822;2022-09-30T13:35:55;17.80;99.90
46416;DHT22;32620;51.704;7.822;2022-09-30T13:38:09;17.40;99.90
46416;DHT22;32620;51.704;7.822;2022-09-30T13:40:34;17.50;99.90
46416;DHT22;32620;51.704;7.822;2022-09-30T13:43:00;17.60;99.90
46416;DHT22;32620;51.704;7.822;2022-09-30T13:45:29;17.40;99.60
46416;DHT22;32620;51.704;7.822;2022-09-30T13:48:03;17.40;99.90
46416;DHT22;32620;51.704;7.822;2022-09-30T13:50:37;17.50;99.90
46416;DHT22;32620;51.704;7.822;2022-09-30T13:55:55;17.40;99.90
46416;DHT22;32620;51.704;7.822;2022-09-30T13:58:31;17.20;99.90
46416;DHT22;32620;51.704;7.822;2022-09-30T14:01:05;17.30;99.90
46416;DHT22;32620;51.704;7.822;2022-09-30T14:06:08;17.00;99.90
46416;DHT22;32620;51.704;7.822;2022-09-30T14:08:56;17.10;99.90
46416;DHT22;32620;51.704;7.822;2022-09-30T14:14:15;17.20;99.80
46416;DHT22;32620;51.704;7.822;2022-09-30T14:16:56;17.30;99.90
46416;DHT22;32620;51.704;7.822;2022-09-30T14:19:32;17.20;99.90
46416;DHT22;32620;51.704;7.822;2022-09-30T14:22:04;17.40;99.90
46416;DHT22;32620;51.704;7.822;2022-09-30T14:24:32;17.50;99.90
46416;DHT22;32620;51.704;7.822;2022-09-30T14:27:09;17.50;99.90
46416;DHT22;32620;51.704;7.822;2022-09-30T14:29:45;17.30;99.70
46416;DHT22;32620;51.704;7.822;2022-09-30T14:32:18;17.30;99.90
46416;DHT22;32620;51.704;7.822;2022-09-30T14:34:44;17.20;99.90
46416;DHT22;32620;51.704;7.822;2022-09-30T14:37:12;17.20;99.90
46416;DHT22;32620;51.704;7.822;2022-09-30T14:39:39;17.30;99.90
46416;DHT22;32620;51.704;7.822;2022-09-30T14:42:09;17.30;99.90
46416;DHT22;32620;51.704;7.822;2022-09-30T14:44:37;17.20;99.90
46416;DHT22;32620;51.704;7.822;2022-09-30T14:47:02;17.10;99.90
46416;DHT22;32620;51.704;7.822;2022-09-30T14:49:30;16.90;99.90
46416;DHT22;32620;51.704;7.822;2022-09-30T14:51:58;17.10;99.90
46416;DHT22;32620;51.704;7.822;2022-09-30T14:54:27;17.30;99.90
46416;DHT22;32620;51.704;7.822;2022-09-30T14:56:54;17.20;99.40
46416;DHT22;32620;51.704;7.822;2022-09-30T14:59:22;17.20;99.80
46416;DHT22;32620;51.704;7.822;2022-09-30T15:01:51;17.30;99.40
46416;DHT22;32620;51.704;7.822;2022-09-30T15:04:22;17.10;99.80
46416;DHT22;32620;51.704;7.822;2022-09-30T15:06:49;17.00;99.90
46416;DHT22;32620;51.704;7.822;2022-09-30T15:09:19;17.00;99.90
46416;DHT22;32620;51.704;7.822;2022-09-30T15:11:45;16.80;99.90
46416;DHT22;32620;51.704;7.822;2022-09-30T15:14:21;16.80;99.80
46416;DHT22;32620;51.704;7.822;2022-09-30T15:16:48;16.90;99.60
46416;DHT22;32620;51.704;7.822;2022-09-30T15:19:22;16.90;99.20
46416;DHT22;32620;51.704;7.822;2022-09-30T15:21:49;16.90;99.80
46416;DHT22;32620;51.704;7.822;2022-09-30T15:24:16;16.90;99.10
46416;DHT22;32620;51.704;7.822;2022-09-30T15:26:42;16.90;99.90
46416;DHT22;32620;51.704;7.822;2022-09-30T15:29:10;16.90;99.90
46416;DHT22;32620;51.704;7.822;2022-09-30T15:31:39;16.80;99.90
46416;DHT22;32620;51.704;7.822;2022-09-30T15:34:23;16.80;99.60
46416;DHT22;32620;51.704;7.822;2022-09-30T15:36:58;16.80;99.60
46416;DHT22;32620;51.704;7.822;2022-09-30T15:39:28;16.70;99.70
46416;DHT22;32620;51.704;7.822;2022-09-30T15:42:26;16.60;99.90
46416;DHT22;32620;51.704;7.822;2022-09-30T15:44:52;16.60;99.90
46416;DHT22;32620;51.704;7.822;2022-09-30T15:47:18;16.50;99.90
46416;DHT22;32620;51.704;7.822;2022-09-30T15:49:45;16.40;99.90
46416;DHT22;32620;51.704;7.822;2022-09-30T15:52:43;16.40;99.90
46416;DHT22;32620;51.704;7.822;2022-09-30T15:55:00;16.30;99.90
46416;DHT22;32620;51.704;7.822;2022-09-30T15:57:43;16.20;99.90
46416;DHT22;32620;51.704;7.822;2022-09-30T16:00:41;16.10;99.90
46416;DHT22;32620;51.704;7.822;2022-09-30T16:03:05;16.00;99.90
46416;DHT22;32620;51.704;7.822;2022-09-30T16:05:31;15.90;99.90
46416;DHT22;32620;51.704;7.822;2022-09-30T16:07:57;15.80;99.90
46416;DHT22;32620;51.704;7.822;2022-09-30T16:10:22;15.70;99.90
46416;DHT22;32620;51.704;7.822;2022-09-30T16:12:48;15.70;99.90
46416;DHT22;32620;51.704;7.822;2022-09-30T16:15:13;15.70;99.90
46416;DHT22;32620;51.704;7.822;2022-09-30T16:17:43;15.70;99.90
46416;DHT22;32620;51.704;7.822;2022-09-30T16:25:12;15.50;99.90
46416;DHT22;32620;51.704;7.822;2022-09-30T16:27:40;15.50;99.90
46416;DHT22;32620;51.704;7.822;2022-09-30T16:30:06;15.50;99.90
46416;DHT22;32620;51.704;7.822;2022-09-30T16:32:34;15.40;99.90
46416;DHT22;32620;51.704;7.822;2022-09-30T16:35:01;15.30;99.90
46416;DHT22;32620;51.704;7.822;2022-09-30T16:37:26;15.30;99.90
46416;DHT22;32620;51.704;7.822;2022-09-30T16:39:53;15.20;99.90
46416;DHT22;32620;51.704;7.822;2022-09-30T16:42:20;15.20;99.90
46416;DHT22;32620;51.704;7.822;2022-09-30T16:44:46;15.00;99.90
46416;DHT22;32620;51.704;7.822;2022-09-30T16:47:12;14.90;99.90
46416;DHT22;32620;51.704;7.822;2022-09-30T16:49:38;14.90;99.90
46416;DHT22;32620;51.704;7.822;2022-09-30T16:52:06;14.70;99.90
46416;DHT22;32620;51.704;7.822;2022-09-30T16:54:32;14.60;99.90
46416;DHT22;32620;51.704;7.822;2022-09-30T16:56:57;14.50;99.90
46416;DHT22;32620;51.704;7.822;2022-09-30T16:59:22;14.40;99.90
46416;DHT22;32620;51.704;7.822;2022-09-30T17:01:48;14.30;99.90
46416;DHT22;32620;51.704;7.822;2022-09-30T17:04:13;14.10;99.90
46416;DHT22;32620;51.704;7.822;2022-09-30T17:06:39;13.90;99.90
46416;DHT22;32620;51.704;7.822;2022-09-30T17:09:04;13.80;99.90
46416;DHT22;32620;51.704;7.822;2022-09-30T17:11:31;13.60;99.90